sensor_id;sensor_type;location;lat;lon;timestamp;pressure;altitude;pressure_sealevel;temperature;humidity
10712;BME280;5407;51.234;6.804;2023-04-16T00:01:55;101487.25;;;23.95;40.17
10712;BME280;5407;51.234;6.804;2023-04-16T00:04:21;101473.91;;;23.93;40.24
10712;BME280;5407;51.234;6.804;2023-04-16T00:06:48;101479.41;;;23.93;40.07
10712;BME280;5407;51.234;6.804;2023-04-16T00:09:15;101486.13;;;23.92;40.17
10712;BME280;5407;51.234;6.804;2023-04-16T00:11:43;101481.00;;;23.91;40.17
10712;BME280;5407;51.234;6.804;2023-04-16T00:14:10;101482.16;;;23.93;40.32
10712;BME280;5407;51.234;6.804;2023-04-16T00:16:37;101478.66;;;23.89;40.36
10712;BME280;5407;51.234;6.804;2023-04-16T00:19:04;101475.50;;;23.91;40.28
10712;BME280;5407;51.234;6.804;2023-04-16T00:21:31;101480.22;;;23.90;40.22
10712;BME280;5407;51.234;6.804;2023-04-16T00:23:58;101484.56;;;23.91;40.44
10712;BME280;5407;51.234;6.804;2023-04-16T00:26:25;101482.59;;;23.88;40.34
10712;BME280;5407;51.234;6.804;2023-04-16T00:28:54;101483.78;;;23.87;40.24
10712;BME280;5407;51.234;6.804;2023-04-16T00:31:26;101481.03;;;23.87;40.34
10712;BME280;5407;51.234;6.804;2023-04-16T00:33:55;101489.28;;;23.87;40.33
10712;BME280;5407;51.234;6.804;2023-04-16T00:36:22;101488.53;;;23.87;40.42
10712;BME280;5407;51.234;6.804;2023-04-16T00:38:49;101483.41;;;23.85;40.48
10712;BME280;5407;51.234;6.804;2023-04-16T00:41:16;101488.94;;;23.85;40.32
10712;BME280;5407;51.234;6.804;2023-04-16T00:43:43;101486.97;;;23.86;40.48
10712;BME280;5407;51.234;6.804;2023-04-16T00:46:11;101490.50;;;23.86;40.46
10712;BME280;5407;51.234;6.804;2023-04-16T00:48:39;101488.94;;;23.85;40.39
10712;BME280;5407;51.234;6.804;2023-04-16T00:51:07;101489.72;;;23.86;40.45
10712;BME280;5407;51.234;6.804;2023-04-16T00:53:34;101486.16;;;23.85;40.37
10712;BME280;5407;51.234;6.804;2023-04-16T00:56:02;101485.78;;;23.87;40.26
10712;BME280;5407;51.234;6.804;2023-04-16T00:58:30;101487.38;;;23.84;40.40
10712;BME280;5407;51.234;6.804;2023-04-16T01:00:57;101489.72;;;23.86;40.41
10712;BME280;5407;51.234;6.804;2023-04-16T01:03:37;101483.41;;;23.85;40.30
10712;BME280;5407;51.234;6.804;2023-04-16T01:06:05;101486.53;;;23.87;40.27
10712;BME280;5407;51.234;6.804;2023-04-16T01:08:33;101488.09;;;23.88;40.38
10712;BME280;5407;51.234;6.804;2023-04-16T01:11:00;101493.25;;;23.86;40.40
10712;BME280;5407;51.234;6.804;2023-04-16T01:13:26;101490.50;;;23.86;40.39
10712;BME280;5407;51.234;6.804;2023-04-16T01:15:54;101491.28;;;23.87;40.27
10712;BME280;5407;51.234;6.804;2023-04-16T01:18:22;101499.94;;;23.85;40.35
10712;BME280;5407;51.234;6.804;2023-04-16T01:20:50;101495.25;;;23.82;40.27
10712;BME280;5407;51.234;6.804;2023-04-16T01:23:18;101499.59;;;23.83;40.35
10712;BME280;5407;51.234;6.804;2023-04-16T01:25:45;101499.22;;;23.81;40.27
10712;BME280;5407;51.234;6.804;2023-04-16T01:28:12;101500.00;;;23.82;40.34
10712;BME280;5407;51.234;6.804;2023-04-16T01:30:39;101503.16;;;23.80;40.35
10712;BME280;5407;51.234;6.804;2023-04-16T01:33:26;101505.53;;;23.82;40.35
10712;BME280;5407;51.234;6.804;2023-04-16T01:35:54;101503.16;;;23.80;40.39
10712;BME280;5407;51.234;6.804;2023-04-16T01:38:21;101504.75;;;23.78;40.52
10712;BME280;5407;51.234;6.804;2023-04-16T01:40:48;101507.06;;;23.79;40.41
10712;BME280;5407;51.234;6.804;2023-04-16T01:43:14;101508.28;;;23.78;40.30
10712;BME280;5407;51.234;6.804;2023-04-16T01:45:41;101501.56;;;23.79;40.44
10712;BME280;5407;51.234;6.804;2023-04-16T01:48:11;101508.28;;;23.78;40.42
10712;BME280;5407;51.234;6.804;2023-04-16T01:50:37;101511.03;;;23.78;40.57
10712;BME280;5407;51.234;6.804;2023-04-16T01:53:06;101506.31;;;23.79;40.40
10712;BME280;5407;51.234;6.804;2023-04-16T01:55:34;101508.66;;;23.80;40.30
10712;BME280;5407;51.234;6.804;2023-04-16T01:58:01;101512.22;;;23.77;40.55
10712;BME280;5407;51.234;6.804;2023-04-16T02:00:32;101507.06;;;23.79;40.59
10712;BME280;5407;51.234;6.804;2023-04-16T02:02:59;101508.28;;;23.78;40.62
10712;BME280;5407;51.234;6.804;2023-04-16T02:05:27;101514.19;;;23.80;40.68
10712;BME280;5407;51.234;6.804;2023-04-16T02:07:54;101505.53;;;23.82;40.74
10712;BME280;5407;51.234;6.804;2023-04-16T02:10:22;101504.63;;;23.88;40.81
10712;BME280;5407;51.234;6.804;2023-04-16T02:12:49;101501.81;;;23.95;41.05
10712;BME280;5407;51.234;6.804;2023-04-16T02:15:16;101511.59;;;24.00;40.94
10712;BME280;5407;51.234;6.804;2023-04-16T02:17:43;101506.09;;;24.00;40.92
10712;BME280;5407;51.234;6.804;2023-04-16T02:20:12;101504.53;;;23.99;41.16
10712;BME280;5407;51.234;6.804;2023-04-16T02:22:49;101501.41;;;23.97;41.04
10712;BME280;5407;51.234;6.804;2023-04-16T02:25:19;101501.81;;;23.95;41.19
10712;BME280;5407;51.234;6.804;2023-04-16T02:27:47;101503.78;;;23.95;41.00
10712;BME280;5407;51.234;6.804;2023-04-16T02:30:28;101504.59;;;23.95;41.21
10712;BME280;5407;51.234;6.804;2023-04-16T02:32:55;101506.53;;;23.95;41.04
10712;BME280;5407;51.234;6.804;2023-04-16T02:35:22;101504.59;;;23.95;41.18
10712;BME280;5407;51.234;6.804;2023-04-16T02:37:49;101510.09;;;23.95;41.16
10712;BME280;5407;51.234;6.804;2023-04-16T02:40:16;101501.47;;;23.93;41.11
10712;BME280;5407;51.234;6.804;2023-04-16T02:42:43;101509.72;;;23.93;40.91
10712;BME280;5407;51.234;6.804;2023-04-16T02:45:12;101503.03;;;23.94;41.07
10712;BME280;5407;51.234;6.804;2023-04-16T02:47:38;101517.16;;;23.96;40.97
10712;BME280;5407;51.234;6.804;2023-04-16T02:50:07;101515.97;;;23.97;41.00
10712;BME280;5407;51.234;6.804;2023-04-16T02:52:34;101511.22;;;23.98;40.84
10712;BME280;5407;51.234;6.804;2023-04-16T02:55:01;101514.00;;;23.98;40.80
10712;BME280;5407;51.234;6.804;2023-04-16T02:57:27;101506.16;;;23.96;40.83
10712;BME280;5407;51.234;6.804;2023-04-16T02:59:55;101509.28;;;23.98;40.88
10712;BME280;5407;51.234;6.804;2023-04-16T03:02:23;101506.16;;;23.96;40.80
10712;BME280;5407;51.234;6.804;2023-04-16T03:04:50;101515.19;;;23.97;40.90
10712;BME280;5407;51.234;6.804;2023-04-16T03:07:17;101506.91;;;23.97;40.76
10712;BME280;5407;51.234;6.804;2023-04-16T03:09:44;101508.47;;;23.98;40.71
10712;BME280;5407;51.234;6.804;2023-04-16T03:12:11;101506.16;;;23.96;40.84
10712;BME280;5407;51.234;6.804;2023-04-16T03:14:38;101506.91;;;23.97;40.74
10712;BME280;5407;51.234;6.804;2023-04-16T03:17:05;101516.38;;;23.96;40.75
10712;BME280;5407;51.234;6.804;2023-04-16T03:19:33;101517.16;;;23.96;40.84
10712;BME280;5407;51.234;6.804;2023-04-16T03:22:00;101518.38;;;23.95;40.91
10712;BME280;5407;51.234;6.804;2023-04-16T03:24:26;101530.59;;;23.94;40.82
10712;BME280;5407;51.234;6.804;2023-04-16T03:26:56;101524.25;;;23.97;40.74
10712;BME280;5407;51.234;6.804;2023-04-16T03:29:23;101525.00;;;23.98;40.79
10712;BME280;5407;51.234;6.804;2023-04-16T03:31:52;101529.34;;;23.99;40.91
10712;BME280;5407;51.234;6.804;2023-04-16T03:34:20;101526.53;;;24.02;40.73
10712;BME280;5407;51.234;6.804;2023-04-16T03:39:19;101529.25;;;24.06;40.83
10712;BME280;5407;51.234;6.804;2023-04-16T03:41:46;101520.22;;;24.05;40.59
10712;BME280;5407;51.234;6.804;2023-04-16T03:44:13;101527.28;;;24.06;40.71
10712;BME280;5407;51.234;6.804;2023-04-16T03:46:40;101526.50;;;24.06;40.77
10712;BME280;5407;51.234;6.804;2023-04-16T03:49:07;101524.94;;;24.05;40.64
10712;BME280;5407;51.234;6.804;2023-04-16T03:51:34;101520.22;;;24.05;40.62
10712;BME280;5407;51.234;6.804;2023-04-16T03:54:01;101525.72;;;24.05;40.69
10712;BME280;5407;51.234;6.804;2023-04-16T03:56:30;101522.97;;;24.05;40.79
10712;BME280;5407;51.234;6.804;2023-04-16T03:58:57;101526.53;;;24.02;40.67
10712;BME280;5407;51.234;6.804;2023-04-16T04:01:23;101525.34;;;24.03;40.72
10712;BME280;5407;51.234;6.804;2023-04-16T04:03:51;101522.59;;;24.03;40.71
10712;BME280;5407;51.234;6.804;2023-04-16T04:06:18;101521.03;;;24.02;40.75
10712;BME280;5407;51.234;6.804;2023-04-16T04:08:46;101521.81;;;24.03;40.71
10712;BME280;5407;51.234;6.804;2023-04-16T04:11:14;101518.69;;;24.01;40.81
10712;BME280;5407;51.234;6.804;2023-04-16T04:13:43;101526.94;;;24.01;41.01
10712;BME280;5407;51.234;6.804;2023-04-16T04:16:10;101522.63;;;24.00;40.93
10712;BME280;5407;51.234;6.804;2023-04-16T04:18:37;101527.00;;;23.97;41.10
10712;BME280;5407;51.234;6.804;2023-04-16T04:21:05;101527.78;;;23.98;40.80
10712;BME280;5407;51.234;6.804;2023-04-16T04:23:32;101528.19;;;23.96;41.02
10712;BME280;5407;51.234;6.804;2023-04-16T04:25:59;101534.91;;;23.95;40.91
10712;BME280;5407;51.234;6.804;2023-04-16T04:28:28;101537.66;;;23.95;41.01
10712;BME280;5407;51.234;6.804;2023-04-16T04:30:56;101536.84;;;23.95;40.98
10712;BME280;5407;51.234;6.804;2023-04-16T04:33:24;101540.41;;;23.95;41.09
10712;BME280;5407;51.234;6.804;2023-04-16T04:35:51;101540.03;;;23.93;41.17
10712;BME280;5407;51.234;6.804;2023-04-16T04:38:19;101540.03;;;23.93;41.15
10712;BME280;5407;51.234;6.804;2023-04-16T04:40:48;101540.81;;;23.94;41.18
10712;BME280;5407;51.234;6.804;2023-04-16T04:43:17;101544.38;;;23.94;41.28
10712;BME280;5407;51.234;6.804;2023-04-16T04:45:44;101545.50;;;23.97;41.13
10712;BME280;5407;51.234;6.804;2023-04-16T04:48:12;101546.28;;;23.97;41.03
10712;BME280;5407;51.234;6.804;2023-04-16T04:50:39;101551.81;;;23.97;41.01
10712;BME280;5407;51.234;6.804;2023-04-16T04:53:07;101551.81;;;23.97;41.11
10712;BME280;5407;51.234;6.804;2023-04-16T04:55:36;101554.56;;;23.97;41.09
10712;BME280;5407;51.234;6.804;2023-04-16T04:58:03;101550.63;;;23.98;41.03
10712;BME280;5407;51.234;6.804;2023-04-16T05:00:31;101553.78;;;23.97;41.02
10712;BME280;5407;51.234;6.804;2023-04-16T05:03:01;101553.75;;;24.00;41.04
10712;BME280;5407;51.234;6.804;2023-04-16T05:05:29;101553.38;;;23.98;40.90
10712;BME280;5407;51.234;6.804;2023-04-16T05:07:56;101552.19;;;23.99;40.87
10712;BME280;5407;51.234;6.804;2023-04-16T05:10:23;101567.53;;;24.00;40.85
10712;BME280;5407;51.234;6.804;2023-04-16T05:12:50;101558.06;;;24.01;40.88
10712;BME280;5407;51.234;6.804;2023-04-16T05:15:17;101565.13;;;24.02;40.88
10712;BME280;5407;51.234;6.804;2023-04-16T05:17:44;101572.22;;;24.03;40.81
10712;BME280;5407;51.234;6.804;2023-04-16T05:20:11;101566.72;;;24.03;40.85
10712;BME280;5407;51.234;6.804;2023-04-16T05:22:39;101578.94;;;24.02;40.92
10712;BME280;5407;51.234;6.804;2023-04-16T05:25:06;101580.13;;;24.01;40.81
10712;BME280;5407;51.234;6.804;2023-04-16T05:27:33;101587.19;;;24.02;40.94
10712;BME280;5407;51.234;6.804;2023-04-16T05:30:00;101579.31;;;24.01;40.92
10712;BME280;5407;51.234;6.804;2023-04-16T05:32:27;101589.56;;;24.00;40.88
10712;BME280;5407;51.234;6.804;2023-04-16T05:34:54;101581.69;;;24.02;41.03
10712;BME280;5407;51.234;6.804;2023-04-16T05:37:21;101591.16;;;24.01;41.03
10712;BME280;5407;51.234;6.804;2023-04-16T05:39:49;101592.34;;;24.00;40.96
10712;BME280;5407;51.234;6.804;2023-04-16T05:42:16;101591.16;;;24.01;40.91
10712;BME280;5407;51.234;6.804;2023-04-16T05:44:43;101594.28;;;24.00;40.86
10712;BME280;5407;51.234;6.804;2023-04-16T05:47:09;101594.66;;;24.02;41.00
10712;BME280;5407;51.234;6.804;2023-04-16T05:49:36;101603.28;;;24.07;40.77
10712;BME280;5407;51.234;6.804;2023-04-16T05:52:03;101605.63;;;24.09;40.85
10712;BME280;5407;51.234;6.804;2023-04-16T05:54:31;101608.75;;;24.11;40.80
10712;BME280;5407;51.234;6.804;2023-04-16T05:57:00;101610.00;;;24.06;41.12
10712;BME280;5407;51.234;6.804;2023-04-16T05:59:27;101612.78;;;24.03;41.06
10712;BME280;5407;51.234;6.804;2023-04-16T06:01:55;101614.75;;;24.02;41.05
10712;BME280;5407;51.234;6.804;2023-04-16T06:04:22;101617.91;;;24.01;41.14
10712;BME280;5407;51.234;6.804;2023-04-16T06:06:49;101617.97;;;23.97;41.09
10712;BME280;5407;51.234;6.804;2023-04-16T06:09:15;101619.16;;;23.96;41.22
10712;BME280;5407;51.234;6.804;2023-04-16T06:11:43;101620.34;;;23.95;41.18
10712;BME280;5407;51.234;6.804;2023-04-16T06:14:11;101622.72;;;23.93;41.17
10712;BME280;5407;51.234;6.804;2023-04-16T06:16:38;101627.44;;;23.96;40.99
10712;BME280;5407;51.234;6.804;2023-04-16T06:19:05;101626.25;;;23.97;40.98
10712;BME280;5407;51.234;6.804;2023-04-16T06:21:32;101626.25;;;23.97;41.14
10712;BME280;5407;51.234;6.804;2023-04-16T06:23:59;101634.50;;;23.97;41.06
10712;BME280;5407;51.234;6.804;2023-04-16T06:26:26;101629.00;;;23.97;41.00
10712;BME280;5407;51.234;6.804;2023-04-16T06:28:53;101633.72;;;23.97;41.10
10712;BME280;5407;51.234;6.804;2023-04-16T06:31:21;101641.59;;;23.95;41.13
10712;BME280;5407;51.234;6.804;2023-04-16T06:33:48;101636.91;;;23.92;41.21
10712;BME280;5407;51.234;6.804;2023-04-16T06:36:15;101643.22;;;23.92;41.25
10712;BME280;5407;51.234;6.804;2023-04-16T06:38:42;101649.50;;;23.93;41.28
10712;BME280;5407;51.234;6.804;2023-04-16T06:41:09;101644.00;;;23.93;41.29
10712;BME280;5407;51.234;6.804;2023-04-16T06:43:35;101646.75;;;23.93;41.25
10712;BME280;5407;51.234;6.804;2023-04-16T06:46:02;101648.72;;;23.92;41.20
10712;BME280;5407;51.234;6.804;2023-04-16T06:48:31;101648.72;;;23.92;41.22
10712;BME280;5407;51.234;6.804;2023-04-16T06:50:57;101650.69;;;23.92;41.24
10712;BME280;5407;51.234;6.804;2023-04-16T06:53:24;101659.75;;;23.92;41.21
10712;BME280;5407;51.234;6.804;2023-04-16T06:55:51;101657.41;;;23.91;41.38
10712;BME280;5407;51.234;6.804;2023-04-16T06:58:18;101663.72;;;23.91;41.31
10712;BME280;5407;51.234;6.804;2023-04-16T07:00:45;101658.19;;;23.91;41.40
10712;BME280;5407;51.234;6.804;2023-04-16T07:03:12;101666.84;;;23.90;41.24
10712;BME280;5407;51.234;6.804;2023-04-16T07:05:40;101658.59;;;23.90;41.23
10712;BME280;5407;51.234;6.804;2023-04-16T07:08:07;101662.13;;;23.90;41.29
10712;BME280;5407;51.234;6.804;2023-04-16T07:10:34;101664.09;;;23.90;41.38
10712;BME280;5407;51.234;6.804;2023-04-16T07:13:00;101660.56;;;23.89;41.40
10712;BME280;5407;51.234;6.804;2023-04-16T07:15:27;101666.84;;;23.90;41.31
10712;BME280;5407;51.234;6.804;2023-04-16T07:17:54;101670.00;;;23.88;41.24
10712;BME280;5407;51.234;6.804;2023-04-16T07:20:21;101663.34;;;23.89;41.39
10712;BME280;5407;51.234;6.804;2023-04-16T07:22:49;101667.25;;;23.88;41.21
10712;BME280;5407;51.234;6.804;2023-04-16T07:25:16;101665.28;;;23.89;41.33
10712;BME280;5407;51.234;6.804;2023-04-16T07:27:43;101677.13;;;23.89;41.28
10712;BME280;5407;51.234;6.804;2023-04-16T07:30:10;101667.25;;;23.88;41.23
10712;BME280;5407;51.234;6.804;2023-04-16T07:32:37;101672.00;;;23.88;41.33
10712;BME280;5407;51.234;6.804;2023-04-16T07:35:04;101669.25;;;23.88;41.39
10712;BME280;5407;51.234;6.804;2023-04-16T07:37:31;101676.31;;;23.89;41.33
10712;BME280;5407;51.234;6.804;2023-04-16T07:40:00;101665.28;;;23.89;41.42
10712;BME280;5407;51.234;6.804;2023-04-16T07:42:26;101662.91;;;23.91;41.21
10712;BME280;5407;51.234;6.804;2023-04-16T07:44:54;101667.66;;;23.90;41.34
10712;BME280;5407;51.234;6.804;2023-04-16T07:47:20;101676.69;;;23.91;41.22
10712;BME280;5407;51.234;6.804;2023-04-16T07:49:51;101675.50;;;23.92;41.34
10712;BME280;5407;51.234;6.804;2023-04-16T07:52:17;101676.31;;;23.92;41.23
10712;BME280;5407;51.234;6.804;2023-04-16T07:54:44;101672.34;;;23.93;41.28
10712;BME280;5407;51.234;6.804;2023-04-16T07:57:13;101682.19;;;23.94;41.04
10712;BME280;5407;51.234;6.804;2023-04-16T07:59:40;101678.63;;;23.94;41.06
10712;BME280;5407;51.234;6.804;2023-04-16T08:02:09;101686.50;;;23.95;41.02
10712;BME280;5407;51.234;6.804;2023-04-16T08:04:39;101687.28;;;23.96;40.98
10712;BME280;5407;51.234;6.804;2023-04-16T08:07:06;101697.53;;;23.95;41.12
10712;BME280;5407;51.234;6.804;2023-04-16T08:09:33;101701.84;;;23.96;41.02
10712;BME280;5407;51.234;6.804;2023-04-16T08:12:01;101705.38;;;23.97;41.01
10712;BME280;5407;51.234;6.804;2023-04-16T08:14:29;101695.16;;;23.97;40.92
10712;BME280;5407;51.234;6.804;2023-04-16T08:16:56;101707.75;;;23.98;40.87
10712;BME280;5407;51.234;6.804;2023-04-16T08:19:23;101702.22;;;23.98;41.04
10712;BME280;5407;51.234;6.804;2023-04-16T08:21:50;101708.50;;;23.99;40.87
10712;BME280;5407;51.234;6.804;2023-04-16T08:24:16;101710.88;;;24.00;41.04
10712;BME280;5407;51.234;6.804;2023-04-16T08:26:43;101710.88;;;24.00;41.04
10712;BME280;5407;51.234;6.804;2023-04-16T08:29:10;101727.41;;;24.00;40.99
10712;BME280;5407;51.234;6.804;2023-04-16T08:31:38;101717.16;;;24.01;40.95
10712;BME280;5407;51.234;6.804;2023-04-16T08:34:06;101716.38;;;24.00;41.05
10712;BME280;5407;51.234;6.804;2023-04-16T08:36:33;101722.66;;;24.01;41.05
10712;BME280;5407;51.234;6.804;2023-04-16T08:38:59;101721.09;;;24.03;40.90
10712;BME280;5407;51.234;6.804;2023-04-16T08:41:28;101731.69;;;24.05;40.96
10712;BME280;5407;51.234;6.804;2023-04-16T08:43:59;101728.53;;;24.06;40.98
10712;BME280;5407;51.234;6.804;2023-04-16T08:46:28;101732.81;;;24.11;41.04
10712;BME280;5407;51.234;6.804;2023-04-16T08:48:58;101732.78;;;24.14;41.10
10712;BME280;5407;51.234;6.804;2023-04-16T08:51:28;101726.47;;;24.17;40.82
10712;BME280;5407;51.234;6.804;2023-04-16T08:54:01;101724.09;;;24.19;40.86
10712;BME280;5407;51.234;6.804;2023-04-16T08:56:30;101733.16;;;24.20;40.83
10712;BME280;5407;51.234;6.804;2023-04-16T08:58:57;101746.88;;;24.23;41.04
10712;BME280;5407;51.234;6.804;2023-04-16T09:01:26;101732.72;;;24.25;41.02
10712;BME280;5407;51.234;6.804;2023-04-16T09:03:53;101734.28;;;24.26;41.07
10712;BME280;5407;51.234;6.804;2023-04-16T09:06:22;101735.03;;;24.26;40.83
10712;BME280;5407;51.234;6.804;2023-04-16T09:08:49;101736.59;;;24.27;41.10
10712;BME280;5407;51.234;6.804;2023-04-16T09:11:18;101739.75;;;24.29;40.97
10712;BME280;5407;51.234;6.804;2023-04-16T09:13:45;101745.25;;;24.29;40.72
10712;BME280;5407;51.234;6.804;2023-04-16T09:16:13;101737.41;;;24.28;40.88
10712;BME280;5407;51.234;6.804;2023-04-16T09:18:40;101747.63;;;24.31;40.84
10712;BME280;5407;51.234;6.804;2023-04-16T09:21:08;101743.69;;;24.28;40.74
10712;BME280;5407;51.234;6.804;2023-04-16T09:23:37;101744.50;;;24.29;40.81
10712;BME280;5407;51.234;6.804;2023-04-16T09:26:04;101750.03;;;24.25;41.19
10712;BME280;5407;51.234;6.804;2023-04-16T09:28:38;101745.31;;;24.22;41.11
10712;BME280;5407;51.234;6.804;2023-04-16T09:31:09;101750.09;;;24.18;41.18
10712;BME280;5407;51.234;6.804;2023-04-16T09:33:36;101746.19;;;24.16;41.19
10712;BME280;5407;51.234;6.804;2023-04-16T09:36:04;101752.91;;;24.15;41.21
10712;BME280;5407;51.234;6.804;2023-04-16T09:38:49;101749.75;;;24.13;41.36
10712;BME280;5407;51.234;6.804;2023-04-16T09:41:16;101754.88;;;24.11;41.26
10712;BME280;5407;51.234;6.804;2023-04-16T09:43:54;101754.09;;;24.10;41.33
10712;BME280;5407;51.234;6.804;2023-04-16T09:46:22;101758.06;;;24.09;41.24
10712;BME280;5407;51.234;6.804;2023-04-16T09:48:49;101752.53;;;24.09;41.40
10712;BME280;5407;51.234;6.804;2023-04-16T09:51:16;101756.50;;;24.08;41.26
10712;BME280;5407;51.234;6.804;2023-04-16T09:53:43;101753.34;;;24.06;41.36
10712;BME280;5407;51.234;6.804;2023-04-16T09:56:11;101754.91;;;24.07;41.45
10712;BME280;5407;51.234;6.804;2023-04-16T09:58:38;101754.88;;;24.11;41.72
10712;BME280;5407;51.234;6.804;2023-04-16T10:01:07;101751.34;;;24.14;41.61
10712;BME280;5407;51.234;6.804;2023-04-16T10:03:36;101758.78;;;24.17;41.50
10712;BME280;5407;51.234;6.804;2023-04-16T10:06:07;101758.38;;;24.18;41.46
10712;BME280;5407;51.234;6.804;2023-04-16T10:08:34;101758.38;;;24.18;41.79
10712;BME280;5407;51.234;6.804;2023-04-16T10:11:01;101770.59;;;24.17;41.81
10712;BME280;5407;51.234;6.804;2023-04-16T10:13:30;101769.81;;;24.17;41.87
10712;BME280;5407;51.234;6.804;2023-04-16T10:15:58;101766.25;;;24.16;41.87
10712;BME280;5407;51.234;6.804;2023-04-16T10:18:26;101769.81;;;24.17;41.91
10712;BME280;5407;51.234;6.804;2023-04-16T10:20:54;101772.97;;;24.15;41.85
10712;BME280;5407;51.234;6.804;2023-04-16T10:23:21;101767.44;;;24.15;41.70
10712;BME280;5407;51.234;6.804;2023-04-16T10:25:48;101763.50;;;24.16;42.02
10712;BME280;5407;51.234;6.804;2023-04-16T10:28:16;101757.22;;;24.16;41.96
10712;BME280;5407;51.234;6.804;2023-04-16T10:30:47;101760.75;;;24.16;41.86
10712;BME280;5407;51.234;6.804;2023-04-16T10:33:22;101761.94;;;24.15;41.90
10712;BME280;5407;51.234;6.804;2023-04-16T10:35:49;101767.81;;;24.17;42.04
10712;BME280;5407;51.234;6.804;2023-04-16T10:38:24;101765.06;;;24.17;41.87
10712;BME280;5407;51.234;6.804;2023-04-16T10:40:57;101769.41;;;24.18;41.57
10712;BME280;5407;51.234;6.804;2023-04-16T10:43:27;101765.44;;;24.19;41.62
10712;BME280;5407;51.234;6.804;2023-04-16T10:45:55;101764.25;;;24.20;41.53
10712;BME280;5407;51.234;6.804;2023-04-16T10:48:23;101759.53;;;24.21;41.06
10712;BME280;5407;51.234;6.804;2023-04-16T10:50:54;101757.16;;;24.23;41.13
10712;BME280;5407;51.234;6.804;2023-04-16T10:53:26;101762.63;;;24.26;41.32
10712;BME280;5407;51.234;6.804;2023-04-16T10:56:11;101760.25;;;24.28;41.00
10712;BME280;5407;51.234;6.804;2023-04-16T10:58:40;101765.75;;;24.28;40.87
10712;BME280;5407;51.234;6.804;2023-04-16T11:01:12;101771.28;;;24.28;41.04
10712;BME280;5407;51.234;6.804;2023-04-16T11:03:42;101763.38;;;24.30;41.02
10712;BME280;5407;51.234;6.804;2023-04-16T11:06:10;101757.84;;;24.30;41.02
10712;BME280;5407;51.234;6.804;2023-04-16T11:08:37;101758.66;;;24.31;40.90
10712;BME280;5407;51.234;6.804;2023-04-16T11:11:05;101761.78;;;24.33;40.86
10712;BME280;5407;51.234;6.804;2023-04-16T11:13:32;101757.03;;;24.33;40.85
10712;BME280;5407;51.234;6.804;2023-04-16T11:16:00;101750.31;;;24.34;41.01
10712;BME280;5407;51.234;6.804;2023-04-16T11:18:28;101767.28;;;24.36;40.83
10712;BME280;5407;51.234;6.804;2023-04-16T11:20:56;101767.28;;;24.36;40.88
10712;BME280;5407;51.234;6.804;2023-04-16T11:23:23;101754.66;;;24.35;41.15
10712;BME280;5407;51.234;6.804;2023-04-16T11:25:50;101769.63;;;24.34;41.55
10712;BME280;5407;51.234;6.804;2023-04-16T11:28:31;101770.44;;;24.35;41.04
10712;BME280;5407;51.234;6.804;2023-04-16T11:30:58;101762.94;;;24.35;40.88
10712;BME280;5407;51.234;6.804;2023-04-16T11:33:25;101778.31;;;24.36;40.88
10712;BME280;5407;51.234;6.804;2023-04-16T11:35:56;101771.19;;;24.39;41.04
10712;BME280;5407;51.234;6.804;2023-04-16T11:38:32;101768.03;;;24.40;40.90
10712;BME280;5407;51.234;6.804;2023-04-16T11:41:00;101773.53;;;24.40;40.87
10712;BME280;5407;51.234;6.804;2023-04-16T11:43:28;101773.53;;;24.40;41.13
10712;BME280;5407;51.234;6.804;2023-04-16T11:45:56;101771.19;;;24.39;41.11
10712;BME280;5407;51.234;6.804;2023-04-16T11:48:23;101770.78;;;24.40;41.54
10712;BME280;5407;51.234;6.804;2023-04-16T11:50:55;101775.94;;;24.38;41.82
10712;BME280;5407;51.234;6.804;2023-04-16T11:53:23;101767.66;;;24.38;41.64
10712;BME280;5407;51.234;6.804;2023-04-16T11:55:50;101770.41;;;24.38;42.11
10712;BME280;5407;51.234;6.804;2023-04-16T11:58:17;101770.41;;;24.38;41.93
10712;BME280;5407;51.234;6.804;2023-04-16T12:00:47;101765.66;;;24.39;41.67
10712;BME280;5407;51.234;6.804;2023-04-16T12:03:14;101771.97;;;24.39;41.73
10712;BME280;5407;51.234;6.804;2023-04-16T12:05:41;101760.94;;;24.39;41.72
10712;BME280;5407;51.234;6.804;2023-04-16T12:08:09;101768.78;;;24.41;41.62
10712;BME280;5407;51.234;6.804;2023-04-16T12:10:52;101775.13;;;24.41;41.96
10712;BME280;5407;51.234;6.804;2023-04-16T12:13:19;101769.59;;;24.41;41.63
10712;BME280;5407;51.234;6.804;2023-04-16T12:15:47;101773.53;;;24.40;41.90
10712;BME280;5407;51.234;6.804;2023-04-16T12:18:15;101770.41;;;24.38;42.02
10712;BME280;5407;51.234;6.804;2023-04-16T12:20:43;101775.13;;;24.38;41.86
10712;BME280;5407;51.234;6.804;2023-04-16T12:23:20;101786.59;;;24.36;41.91
10712;BME280;5407;51.234;6.804;2023-04-16T12:25:48;101776.72;;;24.35;42.04
10712;BME280;5407;51.234;6.804;2023-04-16T12:28:26;101781.47;;;24.35;42.05
10712;BME280;5407;51.234;6.804;2023-04-16T12:30:53;101782.22;;;24.35;41.75
10712;BME280;5407;51.234;6.804;2023-04-16T12:33:20;101775.16;;;24.34;41.98
10712;BME280;5407;51.234;6.804;2023-04-16T12:35:47;101780.66;;;24.34;42.03
10712;BME280;5407;51.234;6.804;2023-04-16T12:38:14;101782.22;;;24.35;41.71
10712;BME280;5407;51.234;6.804;2023-04-16T12:40:41;101779.09;;;24.33;41.89
10712;BME280;5407;51.234;6.804;2023-04-16T12:43:09;101778.34;;;24.33;41.82
10712;BME280;5407;51.234;6.804;2023-04-16T12:45:37;101774.78;;;24.32;41.88
10712;BME280;5407;51.234;6.804;2023-04-16T12:48:05;101777.91;;;24.34;42.06
10712;BME280;5407;51.234;6.804;2023-04-16T12:50:32;101779.09;;;24.33;41.70
10712;BME280;5407;51.234;6.804;2023-04-16T12:52:59;101780.66;;;24.34;41.85
10712;BME280;5407;51.234;6.804;2023-04-16T12:55:26;101779.91;;;24.34;41.83
10712;BME280;5407;51.234;6.804;2023-04-16T12:57:53;101780.66;;;24.34;42.09
10712;BME280;5407;51.234;6.804;2023-04-16T13:00:21;101775.16;;;24.34;41.95
10712;BME280;5407;51.234;6.804;2023-04-16T13:02:48;101775.16;;;24.34;41.91
10712;BME280;5407;51.234;6.804;2023-04-16T13:05:15;101777.91;;;24.34;42.03
10712;BME280;5407;51.234;6.804;2023-04-16T13:07:43;101775.16;;;24.34;41.76